sensor_id;sensor_type;location;lat;lon;timestamp;P1;durP1;ratioP1;P2;durP2;ratioP2
77868;SDS011;67231;59.144;37.934;2023-06-26T00:00:08;15.38;;;9.18;;
77868;SDS011;67231;59.144;37.934;2023-06-26T00:02:34;16.98;;;8.77;;
77868;SDS011;67231;59.144;37.934;2023-06-26T00:05:01;14.48;;;7.90;;
77868;SDS011;67231;59.144;37.934;2023-06-26T00:07:33;15.02;;;8.35;;
77868;SDS011;67231;59.144;37.934;2023-06-26T00:12:29;16.00;;;8.35;;
77868;SDS011;67231;59.144;37.934;2023-06-26T00:14:57;16.38;;;8.30;;
77868;SDS011;67231;59.144;37.934;2023-06-26T00:17:23;16.92;;;8.27;;
77868;SDS011;67231;59.144;37.934;2023-06-26T00:19:50;16.77;;;9.15;;
77868;SDS011;67231;59.144;37.934;2023-06-26T00:22:17;15.15;;;8.38;;
77868;SDS011;67231;59.144;37.934;2023-06-26T00:24:43;16.85;;;8.88;;
77868;SDS011;67231;59.144;37.934;2023-06-26T00:27:11;13.68;;;8.15;;
77868;SDS011;67231;59.144;37.934;2023-06-26T00:29:38;13.73;;;8.02;;
77868;SDS011;67231;59.144;37.934;2023-06-26T00:32:06;16.63;;;8.85;;
77868;SDS011;67231;59.144;37.934;2023-06-26T00:34:34;18.10;;;9.40;;
77868;SDS011;67231;59.144;37.934;2023-06-26T00:37:01;15.68;;;8.15;;
77868;SDS011;67231;59.144;37.934;2023-06-26T00:39:27;14.10;;;7.50;;
77868;SDS011;67231;59.144;37.934;2023-06-26T00:41:54;15.52;;;8.15;;
77868;SDS011;67231;59.144;37.934;2023-06-26T00:44:20;14.63;;;8.60;;
77868;SDS011;67231;59.144;37.934;2023-06-26T00:46:47;15.07;;;7.80;;
77868;SDS011;67231;59.144;37.934;2023-06-26T00:49:15;19.92;;;8.48;;
77868;SDS011;67231;59.144;37.934;2023-06-26T00:51:41;16.73;;;8.48;;
77868;SDS011;67231;59.144;37.934;2023-06-26T00:54:09;17.73;;;8.48;;
77868;SDS011;67231;59.144;37.934;2023-06-26T00:56:35;17.42;;;9.10;;
77868;SDS011;67231;59.144;37.934;2023-06-26T00:59:04;16.55;;;9.20;;
77868;SDS011;67231;59.144;37.934;2023-06-26T01:01:31;15.23;;;8.50;;
77868;SDS011;67231;59.144;37.934;2023-06-26T01:03:58;17.13;;;8.15;;
77868;SDS011;67231;59.144;37.934;2023-06-26T01:06:25;15.75;;;8.63;;
77868;SDS011;67231;59.144;37.934;2023-06-26T01:08:57;14.63;;;8.35;;
77868;SDS011;67231;59.144;37.934;2023-06-26T01:11:25;17.80;;;8.55;;
77868;SDS011;67231;59.144;37.934;2023-06-26T01:13:51;17.15;;;8.55;;
77868;SDS011;67231;59.144;37.934;2023-06-26T01:16:18;17.92;;;9.13;;
77868;SDS011;67231;59.144;37.934;2023-06-26T01:18:46;20.30;;;9.60;;
77868;SDS011;67231;59.144;37.934;2023-06-26T01:21:15;17.70;;;9.02;;
77868;SDS011;67231;59.144;37.934;2023-06-26T01:23:49;12.70;;;7.90;;
77868;SDS011;67231;59.144;37.934;2023-06-26T01:26:36;18.05;;;8.70;;
77868;SDS011;67231;59.144;37.934;2023-06-26T01:29:06;16.23;;;8.45;;
77868;SDS011;67231;59.144;37.934;2023-06-26T01:31:35;17.42;;;8.85;;
77868;SDS011;67231;59.144;37.934;2023-06-26T01:34:02;14.75;;;9.00;;
77868;SDS011;67231;59.144;37.934;2023-06-26T01:36:29;16.55;;;9.13;;
77868;SDS011;67231;59.144;37.934;2023-06-26T01:38:55;17.20;;;8.85;;
77868;SDS011;67231;59.144;37.934;2023-06-26T01:41:23;15.13;;;8.90;;
77868;SDS011;67231;59.144;37.934;2023-06-26T01:47:04;20.15;;;9.82;;
77868;SDS011;67231;59.144;37.934;2023-06-26T01:49:47;16.00;;;9.38;;
77868;SDS011;67231;59.144;37.934;2023-06-26T01:52:41;15.00;;;8.82;;
77868;SDS011;67231;59.144;37.934;2023-06-26T01:57:38;14.70;;;8.40;;
77868;SDS011;67231;59.144;37.934;2023-06-26T02:00:05;15.57;;;8.63;;
77868;SDS011;67231;59.144;37.934;2023-06-26T02:02:41;15.38;;;8.88;;
77868;SDS011;67231;59.144;37.934;2023-06-26T02:05:08;16.00;;;8.40;;
77868;SDS011;67231;59.144;37.934;2023-06-26T02:07:35;13.30;;;8.32;;
77868;SDS011;67231;59.144;37.934;2023-06-26T02:10:02;14.70;;;8.73;;
77868;SDS011;67231;59.144;37.934;2023-06-26T02:14:57;15.25;;;9.02;;
77868;SDS011;67231;59.144;37.934;2023-06-26T02:17:25;15.05;;;9.10;;
77868;SDS011;67231;59.144;37.934;2023-06-26T02:19:55;14.38;;;8.73;;
77868;SDS011;67231;59.144;37.934;2023-06-26T02:22:21;16.17;;;8.75;;
77868;SDS011;67231;59.144;37.934;2023-06-26T02:24:48;14.35;;;9.30;;
77868;SDS011;67231;59.144;37.934;2023-06-26T02:27:14;13.23;;;8.68;;
77868;SDS011;67231;59.144;37.934;2023-06-26T02:29:41;14.18;;;9.05;;
77868;SDS011;67231;59.144;37.934;2023-06-26T02:32:08;13.20;;;8.50;;
77868;SDS011;67231;59.144;37.934;2023-06-26T02:34:35;14.90;;;8.98;;
77868;SDS011;67231;59.144;37.934;2023-06-26T02:37:01;16.58;;;8.27;;
77868;SDS011;67231;59.144;37.934;2023-06-26T02:39:29;15.48;;;9.00;;
77868;SDS011;67231;59.144;37.934;2023-06-26T02:41:56;14.57;;;8.68;;
77868;SDS011;67231;59.144;37.934;2023-06-26T02:44:23;17.15;;;8.88;;
77868;SDS011;67231;59.144;37.934;2023-06-26T02:46:49;14.23;;;8.25;;
77868;SDS011;67231;59.144;37.934;2023-06-26T02:49:16;14.55;;;9.13;;
77868;SDS011;67231;59.144;37.934;2023-06-26T02:51:44;15.38;;;9.38;;
77868;SDS011;67231;59.144;37.934;2023-06-26T02:54:21;14.15;;;9.27;;
77868;SDS011;67231;59.144;37.934;2023-06-26T02:56:51;13.98;;;9.00;;
77868;SDS011;67231;59.144;37.934;2023-06-26T02:59:22;15.82;;;9.40;;
77868;SDS011;67231;59.144;37.934;2023-06-26T03:01:49;15.13;;;8.95;;
77868;SDS011;67231;59.144;37.934;2023-06-26T03:04:16;18.38;;;9.88;;
77868;SDS011;67231;59.144;37.934;2023-06-26T03:06:43;16.65;;;9.63;;
77868;SDS011;67231;59.144;37.934;2023-06-26T03:09:10;16.63;;;9.65;;
77868;SDS011;67231;59.144;37.934;2023-06-26T03:11:36;14.23;;;9.13;;
77868;SDS011;67231;59.144;37.934;2023-06-26T03:14:02;14.85;;;9.65;;
77868;SDS011;67231;59.144;37.934;2023-06-26T03:16:28;18.67;;;9.68;;
77868;SDS011;67231;59.144;37.934;2023-06-26T03:18:54;21.02;;;9.90;;
77868;SDS011;67231;59.144;37.934;2023-06-26T03:21:21;15.82;;;9.77;;
77868;SDS011;67231;59.144;37.934;2023-06-26T03:23:47;16.23;;;9.75;;
77868;SDS011;67231;59.144;37.934;2023-06-26T03:26:13;17.27;;;9.93;;
77868;SDS011;67231;59.144;37.934;2023-06-26T03:28:40;17.70;;;10.02;;
77868;SDS011;67231;59.144;37.934;2023-06-26T03:31:09;18.33;;;10.45;;
77868;SDS011;67231;59.144;37.934;2023-06-26T03:33:37;19.02;;;10.18;;
77868;SDS011;67231;59.144;37.934;2023-06-26T03:36:04;17.75;;;10.32;;
77868;SDS011;67231;59.144;37.934;2023-06-26T03:38:31;17.17;;;9.93;;
77868;SDS011;67231;59.144;37.934;2023-06-26T03:40:59;24.10;;;10.60;;
77868;SDS011;67231;59.144;37.934;2023-06-26T03:43:25;16.23;;;10.30;;
77868;SDS011;67231;59.144;37.934;2023-06-26T03:46:15;17.52;;;10.18;;
77868;SDS011;67231;59.144;37.934;2023-06-26T03:48:41;16.10;;;9.93;;
77868;SDS011;67231;59.144;37.934;2023-06-26T03:51:08;20.27;;;10.85;;
77868;SDS011;67231;59.144;37.934;2023-06-26T03:53:34;20.70;;;10.50;;
77868;SDS011;67231;59.144;37.934;2023-06-26T03:56:00;18.10;;;10.07;;
77868;SDS011;67231;59.144;37.934;2023-06-26T03:58:27;15.10;;;9.75;;
77868;SDS011;67231;59.144;37.934;2023-06-26T04:00:53;15.80;;;9.95;;
77868;SDS011;67231;59.144;37.934;2023-06-26T04:03:19;19.65;;;10.13;;
77868;SDS011;67231;59.144;37.934;2023-06-26T04:05:47;16.55;;;9.98;;
77868;SDS011;67231;59.144;37.934;2023-06-26T04:08:13;16.15;;;10.00;;
77868;SDS011;67231;59.144;37.934;2023-06-26T04:10:39;16.50;;;10.05;;
77868;SDS011;67231;59.144;37.934;2023-06-26T04:13:06;15.98;;;9.23;;
77868;SDS011;67231;59.144;37.934;2023-06-26T04:15:32;14.30;;;8.65;;
77868;SDS011;67231;59.144;37.934;2023-06-26T04:17:58;14.75;;;9.23;;
77868;SDS011;67231;59.144;37.934;2023-06-26T04:20:25;14.80;;;9.05;;
77868;SDS011;67231;59.144;37.934;2023-06-26T04:22:51;14.52;;;9.27;;
77868;SDS011;67231;59.144;37.934;2023-06-26T04:25:17;16.90;;;8.68;;
77868;SDS011;67231;59.144;37.934;2023-06-26T04:27:43;15.60;;;9.30;;
77868;SDS011;67231;59.144;37.934;2023-06-26T04:30:10;18.35;;;9.60;;
77868;SDS011;67231;59.144;37.934;2023-06-26T04:32:37;14.95;;;9.75;;
77868;SDS011;67231;59.144;37.934;2023-06-26T04:35:04;14.00;;;8.82;;
77868;SDS011;67231;59.144;37.934;2023-06-26T04:37:30;16.67;;;10.10;;
77868;SDS011;67231;59.144;37.934;2023-06-26T04:39:57;18.48;;;9.85;;
77868;SDS011;67231;59.144;37.934;2023-06-26T04:42:23;17.73;;;9.65;;
77868;SDS011;67231;59.144;37.934;2023-06-26T04:44:49;16.42;;;9.48;;
77868;SDS011;67231;59.144;37.934;2023-06-26T04:47:15;15.60;;;9.65;;
77868;SDS011;67231;59.144;37.934;2023-06-26T04:49:42;15.82;;;9.30;;
77868;SDS011;67231;59.144;37.934;2023-06-26T04:52:12;17.85;;;8.82;;
77868;SDS011;67231;59.144;37.934;2023-06-26T04:54:39;17.77;;;9.27;;
77868;SDS011;67231;59.144;37.934;2023-06-26T04:57:05;18.15;;;10.50;;
77868;SDS011;67231;59.144;37.934;2023-06-26T04:59:32;17.02;;;9.60;;
77868;SDS011;67231;59.144;37.934;2023-06-26T05:01:59;15.35;;;8.80;;
77868;SDS011;67231;59.144;37.934;2023-06-26T05:04:25;17.15;;;9.10;;
77868;SDS011;67231;59.144;37.934;2023-06-26T05:06:51;15.23;;;8.63;;
77868;SDS011;67231;59.144;37.934;2023-06-26T05:09:18;16.80;;;8.63;;
77868;SDS011;67231;59.144;37.934;2023-06-26T05:11:44;13.30;;;8.00;;
77868;SDS011;67231;59.144;37.934;2023-06-26T05:14:10;14.07;;;7.60;;
77868;SDS011;67231;59.144;37.934;2023-06-26T05:16:39;12.68;;;6.97;;
77868;SDS011;67231;59.144;37.934;2023-06-26T05:19:05;12.30;;;6.80;;
77868;SDS011;67231;59.144;37.934;2023-06-26T05:21:31;12.75;;;6.53;;
77868;SDS011;67231;59.144;37.934;2023-06-26T05:23:58;20.65;;;7.95;;
77868;SDS011;67231;59.144;37.934;2023-06-26T05:26:25;16.42;;;7.28;;
77868;SDS011;67231;59.144;37.934;2023-06-26T05:28:52;11.20;;;6.90;;
77868;SDS011;67231;59.144;37.934;2023-06-26T05:31:19;10.18;;;6.20;;
77868;SDS011;67231;59.144;37.934;2023-06-26T05:33:45;10.05;;;5.93;;
77868;SDS011;67231;59.144;37.934;2023-06-26T05:36:12;11.95;;;6.10;;
77868;SDS011;67231;59.144;37.934;2023-06-26T05:38:39;10.10;;;5.80;;
77868;SDS011;67231;59.144;37.934;2023-06-26T05:41:06;19.27;;;8.00;;
77868;SDS011;67231;59.144;37.934;2023-06-26T05:43:32;9.18;;;5.57;;
77868;SDS011;67231;59.144;37.934;2023-06-26T05:45:59;7.55;;;4.72;;
77868;SDS011;67231;59.144;37.934;2023-06-26T05:48:25;8.95;;;4.80;;
77868;SDS011;67231;59.144;37.934;2023-06-26T05:50:51;7.07;;;4.88;;
77868;SDS011;67231;59.144;37.934;2023-06-26T05:53:18;6.30;;;4.70;;
77868;SDS011;67231;59.144;37.934;2023-06-26T05:55:45;7.88;;;4.60;;
77868;SDS011;67231;59.144;37.934;2023-06-26T05:58:11;6.60;;;4.88;;
77868;SDS011;67231;59.144;37.934;2023-06-26T06:00:38;7.38;;;5.00;;
77868;SDS011;67231;59.144;37.934;2023-06-26T06:03:06;10.00;;;5.10;;
77868;SDS011;67231;59.144;37.934;2023-06-26T06:05:36;6.55;;;4.93;;
77868;SDS011;67231;59.144;37.934;2023-06-26T06:08:03;7.20;;;5.03;;
77868;SDS011;67231;59.144;37.934;2023-06-26T06:10:29;7.88;;;5.07;;
77868;SDS011;67231;59.144;37.934;2023-06-26T06:12:55;8.63;;;6.30;;
77868;SDS011;67231;59.144;37.934;2023-06-26T06:15:21;7.25;;;5.28;;
77868;SDS011;67231;59.144;37.934;2023-06-26T06:17:48;7.93;;;5.45;;
77868;SDS011;67231;59.144;37.934;2023-06-26T06:20:14;5.90;;;5.03;;
77868;SDS011;67231;59.144;37.934;2023-06-26T06:22:41;7.65;;;4.82;;
77868;SDS011;67231;59.144;37.934;2023-06-26T06:25:07;7.20;;;5.20;;
77868;SDS011;67231;59.144;37.934;2023-06-26T06:27:33;6.75;;;5.25;;
77868;SDS011;67231;59.144;37.934;2023-06-26T06:29:59;7.90;;;5.20;;
77868;SDS011;67231;59.144;37.934;2023-06-26T06:32:26;7.47;;;5.40;;
77868;SDS011;67231;59.144;37.934;2023-06-26T06:34:52;8.57;;;5.22;;
77868;SDS011;67231;59.144;37.934;2023-06-26T06:37:18;8.68;;;5.32;;
77868;SDS011;67231;59.144;37.934;2023-06-26T06:39:44;6.63;;;5.03;;
77868;SDS011;67231;59.144;37.934;2023-06-26T06:42:11;6.10;;;4.93;;
77868;SDS011;67231;59.144;37.934;2023-06-26T06:44:37;7.82;;;4.72;;
77868;SDS011;67231;59.144;37.934;2023-06-26T06:47:03;7.20;;;4.90;;
77868;SDS011;67231;59.144;37.934;2023-06-26T06:49:30;7.10;;;5.05;;
77868;SDS011;67231;59.144;37.934;2023-06-26T06:51:56;8.00;;;5.35;;
77868;SDS011;67231;59.144;37.934;2023-06-26T06:54:25;7.47;;;4.90;;
77868;SDS011;67231;59.144;37.934;2023-06-26T06:56:52;5.75;;;4.35;;
77868;SDS011;67231;59.144;37.934;2023-06-26T06:59:19;6.80;;;4.50;;
77868;SDS011;67231;59.144;37.934;2023-06-26T07:01:45;5.53;;;4.03;;
77868;SDS011;67231;59.144;37.934;2023-06-26T07:04:11;7.22;;;4.45;;
77868;SDS011;67231;59.144;37.934;2023-06-26T07:06:37;7.25;;;4.60;;
77868;SDS011;67231;59.144;37.934;2023-06-26T07:09:03;6.07;;;4.32;;
77868;SDS011;67231;59.144;37.934;2023-06-26T07:11:31;5.28;;;4.40;;
77868;SDS011;67231;59.144;37.934;2023-06-26T07:13:57;5.70;;;4.70;;
77868;SDS011;67231;59.144;37.934;2023-06-26T07:16:23;5.68;;;4.68;;
77868;SDS011;67231;59.144;37.934;2023-06-26T07:18:50;6.90;;;4.25;;
77868;SDS011;67231;59.144;37.934;2023-06-26T07:21:18;4.88;;;3.40;;
77868;SDS011;67231;59.144;37.934;2023-06-26T07:23:44;5.55;;;3.15;;
77868;SDS011;67231;59.144;37.934;2023-06-26T07:26:10;8.43;;;5.10;;
77868;SDS011;67231;59.144;37.934;2023-06-26T07:28:36;7.20;;;4.72;;
77868;SDS011;67231;59.144;37.934;2023-06-26T07:31:02;7.18;;;3.90;;
77868;SDS011;67231;59.144;37.934;2023-06-26T07:33:29;4.22;;;3.33;;
77868;SDS011;67231;59.144;37.934;2023-06-26T07:35:55;4.47;;;3.13;;
77868;SDS011;67231;59.144;37.934;2023-06-26T07:38:21;5.20;;;3.42;;
77868;SDS011;67231;59.144;37.934;2023-06-26T07:40:47;5.80;;;3.92;;
77868;SDS011;67231;59.144;37.934;2023-06-26T07:43:14;5.75;;;3.95;;
77868;SDS011;67231;59.144;37.934;2023-06-26T07:45:40;6.07;;;4.80;;
77868;SDS011;67231;59.144;37.934;2023-06-26T07:48:06;7.28;;;4.53;;
77868;SDS011;67231;59.144;37.934;2023-06-26T07:50:34;6.13;;;3.97;;
77868;SDS011;67231;59.144;37.934;2023-06-26T07:53:01;4.53;;;3.45;;
77868;SDS011;67231;59.144;37.934;2023-06-26T07:55:28;4.80;;;3.60;;
77868;SDS011;67231;59.144;37.934;2023-06-26T07:57:54;5.95;;;3.60;;
77868;SDS011;67231;59.144;37.934;2023-06-26T08:00:25;6.40;;;3.33;;
77868;SDS011;67231;59.144;37.934;2023-06-26T08:02:52;7.93;;;3.40;;
77868;SDS011;67231;59.144;37.934;2023-06-26T08:05:19;6.75;;;3.78;;
77868;SDS011;67231;59.144;37.934;2023-06-26T08:07:45;7.00;;;3.70;;
77868;SDS011;67231;59.144;37.934;2023-06-26T08:10:11;6.90;;;3.70;;
77868;SDS011;67231;59.144;37.934;2023-06-26T08:12:37;6.93;;;3.30;;
77868;SDS011;67231;59.144;37.934;2023-06-26T08:15:06;6.68;;;3.70;;
77868;SDS011;67231;59.144;37.934;2023-06-26T08:17:33;3.75;;;3.17;;
77868;SDS011;67231;59.144;37.934;2023-06-26T08:20:00;5.75;;;3.40;;
77868;SDS011;67231;59.144;37.934;2023-06-26T08:22:26;5.22;;;3.20;;
77868;SDS011;67231;59.144;37.934;2023-06-26T08:24:52;6.05;;;3.65;;
77868;SDS011;67231;59.144;37.934;2023-06-26T08:27:19;5.35;;;3.42;;
77868;SDS011;67231;59.144;37.934;2023-06-26T08:29:45;4.93;;;3.58;;
77868;SDS011;67231;59.144;37.934;2023-06-26T08:32:11;4.00;;;3.60;;
77868;SDS011;67231;59.144;37.934;2023-06-26T08:34:37;7.07;;;3.75;;
77868;SDS011;67231;59.144;37.934;2023-06-26T08:37:03;5.43;;;3.50;;
77868;SDS011;67231;59.144;37.934;2023-06-26T08:39:30;5.10;;;3.42;;
77868;SDS011;67231;59.144;37.934;2023-06-26T08:41:56;3.88;;;3.42;;
77868;SDS011;67231;59.144;37.934;2023-06-26T08:44:22;5.18;;;3.47;;
77868;SDS011;67231;59.144;37.934;2023-06-26T08:46:51;6.90;;;3.63;;
77868;SDS011;67231;59.144;37.934;2023-06-26T08:49:18;5.85;;;3.70;;
77868;SDS011;67231;59.144;37.934;2023-06-26T08:51:52;4.70;;;3.60;;
77868;SDS011;67231;59.144;37.934;2023-06-26T08:54:30;5.15;;;3.38;;
77868;SDS011;67231;59.144;37.934;2023-06-26T08:57:02;5.93;;;3.53;;
77868;SDS011;67231;59.144;37.934;2023-06-26T08:59:31;4.75;;;3.30;;
77868;SDS011;67231;59.144;37.934;2023-06-26T09:01:58;5.35;;;3.28;;
77868;SDS011;67231;59.144;37.934;2023-06-26T09:04:24;4.13;;;2.92;;
77868;SDS011;67231;59.144;37.934;2023-06-26T09:06:51;5.22;;;3.40;;
77868;SDS011;67231;59.144;37.934;2023-06-26T09:09:17;3.97;;;2.90;;
77868;SDS011;67231;59.144;37.934;2023-06-26T09:11:44;5.13;;;3.17;;
77868;SDS011;67231;59.144;37.934;2023-06-26T09:14:10;4.50;;;3.10;;
77868;SDS011;67231;59.144;37.934;2023-06-26T09:16:41;6.28;;;3.45;;
77868;SDS011;67231;59.144;37.934;2023-06-26T09:19:09;4.00;;;3.20;;
77868;SDS011;67231;59.144;37.934;2023-06-26T09:21:39;4.50;;;2.78;;
77868;SDS011;67231;59.144;37.934;2023-06-26T09:24:06;4.63;;;3.20;;
77868;SDS011;67231;59.144;37.934;2023-06-26T09:26:38;4.25;;;3.20;;
77868;SDS011;67231;59.144;37.934;2023-06-26T09:29:06;5.20;;;3.03;;
77868;SDS011;67231;59.144;37.934;2023-06-26T09:31:33;6.30;;;2.95;;
77868;SDS011;67231;59.144;37.934;2023-06-26T09:34:02;5.70;;;3.20;;
77868;SDS011;67231;59.144;37.934;2023-06-26T09:36:29;4.65;;;3.30;;
77868;SDS011;67231;59.144;37.934;2023-06-26T09:39:03;6.50;;;3.00;;
77868;SDS011;67231;59.144;37.934;2023-06-26T09:41:34;4.38;;;3.00;;
77868;SDS011;67231;59.144;37.934;2023-06-26T09:44:01;4.03;;;2.92;;
77868;SDS011;67231;59.144;37.934;2023-06-26T09:46:28;5.20;;;3.40;;
77868;SDS011;67231;59.144;37.934;2023-06-26T09:49:01;4.47;;;3.00;;
77868;SDS011;67231;59.144;37.934;2023-06-26T09:51:30;9.23;;;4.00;;
77868;SDS011;67231;59.144;37.934;2023-06-26T09:53:58;5.20;;;3.55;;
77868;SDS011;67231;59.144;37.934;2023-06-26T09:56:26;4.00;;;2.95;;
77868;SDS011;67231;59.144;37.934;2023-06-26T09:58:57;6.78;;;3.40;;
77868;SDS011;67231;59.144;37.934;2023-06-26T10:01:25;4.28;;;3.10;;
77868;SDS011;67231;59.144;37.934;2023-06-26T10:03:51;4.90;;;3.28;;
77868;SDS011;67231;59.144;37.934;2023-06-26T10:06:19;6.82;;;3.38;;
77868;SDS011;67231;59.144;37.934;2023-06-26T10:08:50;4.20;;;3.20;;
77868;SDS011;67231;59.144;37.934;2023-06-26T10:11:19;4.97;;;3.10;;
77868;SDS011;67231;59.144;37.934;2023-06-26T10:13:47;5.72;;;3.00;;
77868;SDS011;67231;59.144;37.934;2023-06-26T10:16:19;4.10;;;2.97;;
77868;SDS011;67231;59.144;37.934;2023-06-26T10:18:50;7.18;;;3.33;;
77868;SDS011;67231;59.144;37.934;2023-06-26T10:21:24;4.95;;;3.17;;
77868;SDS011;67231;59.144;37.934;2023-06-26T10:23:53;3.55;;;2.80;;
77868;SDS011;67231;59.144;37.934;2023-06-26T10:26:22;3.97;;;2.95;;
77868;SDS011;67231;59.144;37.934;2023-06-26T10:28:50;5.97;;;2.92;;
77868;SDS011;67231;59.144;37.934;2023-06-26T10:31:23;6.18;;;3.00;;
77868;SDS011;67231;59.144;37.934;2023-06-26T10:33:52;4.68;;;3.22;;
77868;SDS011;67231;59.144;37.934;2023-06-26T10:36:20;8.18;;;3.50;;
77868;SDS011;67231;59.144;37.934;2023-06-26T10:38:54;5.40;;;3.20;;
77868;SDS011;67231;59.144;37.934;2023-06-26T10:41:22;4.93;;;3.05;;
77868;SDS011;67231;59.144;37.934;2023-06-26T10:43:49;4.75;;;2.78;;
77868;SDS011;67231;59.144;37.934;2023-06-26T10:46:17;4.18;;;3.10;;
77868;SDS011;67231;59.144;37.934;2023-06-26T10:48:55;4.25;;;3.03;;
77868;SDS011;67231;59.144;37.934;2023-06-26T10:51:26;5.93;;;3.22;;
77868;SDS011;67231;59.144;37.934;2023-06-26T10:53:56;5.35;;;2.90;;
77868;SDS011;67231;59.144;37.934;2023-06-26T10:56:45;3.92;;;2.88;;
77868;SDS011;67231;59.144;37.934;2023-06-26T10:59:16;3.97;;;2.90;;
77868;SDS011;67231;59.144;37.934;2023-06-26T11:01:44;6.30;;;3.13;;
77868;SDS011;67231;59.144;37.934;2023-06-26T11:04:13;4.70;;;3.33;;
77868;SDS011;67231;59.144;37.934;2023-06-26T11:06:44;3.83;;;2.83;;
77868;SDS011;67231;59.144;37.934;2023-06-26T11:09:15;5.68;;;2.80;;
77868;SDS011;67231;59.144;37.934;2023-06-26T11:14:31;6.13;;;2.83;;
77868;SDS011;67231;59.144;37.934;2023-06-26T11:16:58;4.20;;;2.83;;
77868;SDS011;67231;59.144;37.934;2023-06-26T11:19:25;4.25;;;2.70;;
77868;SDS011;67231;59.144;37.934;2023-06-26T11:21:59;5.50;;;2.88;;
77868;SDS011;67231;59.144;37.934;2023-06-26T11:24:28;5.30;;;2.88;;
77868;SDS011;67231;59.144;37.934;2023-06-26T11:26:55;4.32;;;2.72;;
77868;SDS011;67231;59.144;37.934;2023-06-26T11:29:27;3.45;;;2.65;;
77868;SDS011;67231;59.144;37.934;2023-06-26T11:31:58;6.88;;;2.92;;
77868;SDS011;67231;59.144;37.934;2023-06-26T11:34:29;4.50;;;2.55;;
77868;SDS011;67231;59.144;37.934;2023-06-26T11:36:56;4.13;;;3.05;;
77868;SDS011;67231;59.144;37.934;2023-06-26T11:39:23;4.55;;;2.63;;
77868;SDS011;67231;59.144;37.934;2023-06-26T11:41:49;8.70;;;3.42;;
77868;SDS011;67231;59.144;37.934;2023-06-26T11:44:15;6.35;;;2.88;;
77868;SDS011;67231;59.144;37.934;2023-06-26T11:46:46;4.32;;;2.80;;
77868;SDS011;67231;59.144;37.934;2023-06-26T11:49:15;5.18;;;3.05;;
77868;SDS011;67231;59.144;37.934;2023-06-26T11:51:42;5.30;;;2.80;;
77868;SDS011;67231;59.144;37.934;2023-06-26T11:54:08;4.25;;;3.00;;
77868;SDS011;67231;59.144;37.934;2023-06-26T11:56:34;5.65;;;2.75;;
77868;SDS011;67231;59.144;37.934;2023-06-26T12:04:08;5.82;;;3.15;;
77868;SDS011;67231;59.144;37.934;2023-06-26T12:06:39;4.05;;;2.70;;
77868;SDS011;67231;59.144;37.934;2023-06-26T12:09:08;3.85;;;2.83;;
77868;SDS011;67231;59.144;37.934;2023-06-26T12:11:37;4.20;;;2.83;;
77868;SDS011;67231;59.144;37.934;2023-06-26T12:14:06;4.38;;;2.75;;
77868;SDS011;67231;59.144;37.934;2023-06-26T12:16:34;4.38;;;2.90;;
77868;SDS011;67231;59.144;37.934;2023-06-26T12:19:02;5.53;;;2.60;;
77868;SDS011;67231;59.144;37.934;2023-06-26T12:24:12;4.68;;;2.90;;
77868;SDS011;67231;59.144;37.934;2023-06-26T12:26:48;4.53;;;2.85;;
77868;SDS011;67231;59.144;37.934;2023-06-26T12:29:18;4.78;;;3.03;;
77868;SDS011;67231;59.144;37.934;2023-06-26T12:31:49;4.63;;;2.65;;
77868;SDS011;67231;59.144;37.934;2023-06-26T12:34:18;5.15;;;2.80;;
77868;SDS011;67231;59.144;37.934;2023-06-26T12:36:53;4.15;;;2.92;;
77868;SDS011;67231;59.144;37.934;2023-06-26T12:39:20;5.03;;;2.78;;
77868;SDS011;67231;59.144;37.934;2023-06-26T12:41:53;4.18;;;2.80;;
77868;SDS011;67231;59.144;37.934;2023-06-26T12:44:22;6.05;;;2.83;;
77868;SDS011;67231;59.144;37.934;2023-06-26T12:46:56;4.03;;;2.65;;
77868;SDS011;67231;59.144;37.934;2023-06-26T12:49:30;5.47;;;2.65;;
77868;SDS011;67231;59.144;37.934;2023-06-26T12:51:58;4.30;;;2.78;;
77868;SDS011;67231;59.144;37.934;2023-06-26T12:54:26;5.65;;;2.83;;
77868;SDS011;67231;59.144;37.934;2023-06-26T12:56:53;5.78;;;2.85;;
77868;SDS011;67231;59.144;37.934;2023-06-26T12:59:20;5.55;;;2.80;;
77868;SDS011;67231;59.144;37.934;2023-06-26T13:01:47;7.85;;;3.30;;
77868;SDS011;67231;59.144;37.934;2023-06-26T13:04:15;5.53;;;3.15;;
77868;SDS011;67231;59.144;37.934;2023-06-26T13:06:42;9.73;;;3.45;;
77868;SDS011;67231;59.144;37.934;2023-06-26T13:09:08;6.00;;;2.80;;
77868;SDS011;67231;59.144;37.934;2023-06-26T13:11:36;4.57;;;2.70;;
77868;SDS011;67231;59.144;37.934;2023-06-26T13:14:03;5.00;;;2.80;;
77868;SDS011;67231;59.144;37.934;2023-06-26T13:16:29;4.32;;;2.67;;
77868;SDS011;67231;59.144;37.934;2023-06-26T13:18:57;4.20;;;2.80;;
77868;SDS011;67231;59.144;37.934;2023-06-26T13:21:25;4.93;;;3.10;;
77868;SDS011;67231;59.144;37.934;2023-06-26T13:23:51;6.32;;;3.00;;
77868;SDS011;67231;59.144;37.934;2023-06-26T13:26:18;5.00;;;2.90;;
77868;SDS011;67231;59.144;37.934;2023-06-26T13:28:45;5.68;;;2.88;;
77868;SDS011;67231;59.144;37.934;2023-06-26T13:31:12;4.30;;;2.80;;
77868;SDS011;67231;59.144;37.934;2023-06-26T13:33:38;7.22;;;2.80;;
77868;SDS011;67231;59.144;37.934;2023-06-26T13:36:04;8.93;;;3.13;;
77868;SDS011;67231;59.144;37.934;2023-06-26T13:38:33;6.50;;;3.15;;
77868;SDS011;67231;59.144;37.934;2023-06-26T13:41:00;4.20;;;2.60;;
77868;SDS011;67231;59.144;37.934;2023-06-26T13:43:27;5.70;;;3.00;;
77868;SDS011;67231;59.144;37.934;2023-06-26T13:45:54;5.95;;;2.92;;
77868;SDS011;67231;59.144;37.934;2023-06-26T13:48:21;10.05;;;3.00;;
77868;SDS011;67231;59.144;37.934;2023-06-26T13:53:16;7.82;;;2.90;;
77868;SDS011;67231;59.144;37.934;2023-06-26T13:55:43;5.13;;;2.80;;
77868;SDS011;67231;59.144;37.934;2023-06-26T13:58:09;22.88;;;11.55;;
77868;SDS011;67231;59.144;37.934;2023-06-26T14:00:37;31.73;;;13.93;;
77868;SDS011;67231;59.144;37.934;2023-06-26T14:03:03;24.40;;;12.70;;
77868;SDS011;67231;59.144;37.934;2023-06-26T14:05:32;36.38;;;19.13;;
77868;SDS011;67231;59.144;37.934;2023-06-26T14:07:59;13.93;;;6.80;;
77868;SDS011;67231;59.144;37.934;2023-06-26T14:12:54;5.40;;;3.40;;
77868;SDS011;67231;59.144;37.934;2023-06-26T14:15:21;4.47;;;3.05;;
77868;SDS011;67231;59.144;37.934;2023-06-26T14:17:47;5.38;;;3.10;;
77868;SDS011;67231;59.144;37.934;2023-06-26T14:20:14;4.85;;;3.45;;
77868;SDS011;67231;59.144;37.934;2023-06-26T14:22:41;5.70;;;3.42;;
77868;SDS011;67231;59.144;37.934;2023-06-26T14:25:08;4.60;;;3.22;;
77868;SDS011;67231;59.144;37.934;2023-06-26T14:27:35;4.25;;;3.08;;
77868;SDS011;67231;59.144;37.934;2023-06-26T14:30:03;4.75;;;3.15;;
77868;SDS011;67231;59.144;37.934;2023-06-26T14:32:34;7.47;;;3.22;;
77868;SDS011;67231;59.144;37.934;2023-06-26T14:35:02;5.45;;;3.40;;
77868;SDS011;67231;59.144;37.934;2023-06-26T14:37:35;6.13;;;2.97;;
77868;SDS011;67231;59.144;37.934;2023-06-26T14:40:02;4.85;;;3.20;;
77868;SDS011;67231;59.144;37.934;2023-06-26T14:42:34;5.57;;;3.00;;
77868;SDS011;67231;59.144;37.934;2023-06-26T14:45:00;5.78;;;2.92;;
77868;SDS011;67231;59.144;37.934;2023-06-26T14:47:27;5.30;;;3.20;;
77868;SDS011;67231;59.144;37.934;2023-06-26T14:49:53;8.68;;;3.60;;
77868;SDS011;67231;59.144;37.934;2023-06-26T14:52:19;6.13;;;3.67;;
77868;SDS011;67231;59.144;37.934;2023-06-26T14:54:45;4.85;;;3.20;;
77868;SDS011;67231;59.144;37.934;2023-06-26T14:57:11;7.80;;;3.53;;